createdAt,value
2019-01-08T00:00:41.490Z,188.43
2019-01-08T00:03:16.783Z,184.23
2019-01-08T00:05:48.693Z,185.17
2019-01-08T00:08:20.605Z,170.57
2019-01-08T00:10:54.483Z,173.43
2019-01-08T00:13:26.681Z,181.60
2019-01-08T00:16:03.486Z,178.57
2019-01-08T00:18:35.354Z,179.67
2019-01-08T00:21:07.251Z,170.47
2019-01-08T00:23:39.170Z,174.60
2019-01-08T00:26:11.361Z,167.57
2019-01-08T00:28:43.601Z,173.67
2019-01-08T00:31:15.466Z,177.13
2019-01-08T00:33:47.396Z,171.40
2019-01-08T00:36:19.254Z,178.77
2019-01-08T00:38:51.214Z,199.77
2019-01-08T00:41:27.146Z,199.60
2019-01-08T00:43:59.077Z,194.53
2019-01-08T00:46:31.651Z,183.37
2019-01-08T00:49:03.498Z,189.93
2019-01-08T00:51:35.439Z,176.03
2019-01-08T00:54:07.294Z,177.87
2019-01-08T00:56:39.583Z,189.70
2019-01-08T00:59:11.466Z,188.70
2019-01-08T01:01:45.324Z,195.40
2019-01-08T01:04:17.183Z,180.57
2019-01-08T01:06:49.208Z,180.23
2019-01-08T01:09:21.054Z,185.70
2019-01-08T01:11:52.996Z,180.80
2019-01-08T01:14:25.042Z,184.87
2019-01-08T01:16:56.910Z,174.13
2019-01-08T01:19:29.542Z,168.53
2019-01-08T01:22:01.476Z,174.63
2019-01-08T01:24:33.341Z,172.77
2019-01-08T01:27:05.247Z,170.20
2019-01-08T01:29:37.098Z,176.97
2019-01-08T01:32:10.994Z,158.73
2019-01-08T01:34:45.370Z,171.37
2019-01-08T01:37:17.707Z,169.47
2019-01-08T01:39:49.581Z,166.23
2019-01-08T01:42:21.479Z,173.43
2019-01-08T01:44:53.378Z,172.73
2019-01-08T01:47:25.248Z,153.70
2019-01-08T01:50:00.354Z,156.70
2019-01-08T01:52:32.255Z,154.33
2019-01-08T01:55:04.245Z,148.20
2019-01-08T01:57:36.096Z,160.23
2019-01-08T02:00:11.047Z,157.63
2019-01-08T02:02:45.430Z,156.57
2019-01-08T02:05:18.601Z,167.73
2019-01-08T02:07:50.468Z,151.83
2019-01-08T02:10:22.463Z,156.17
2019-01-08T02:12:54.390Z,164.93
2019-01-08T02:15:26.302Z,160.33
2019-01-08T02:17:58.135Z,170.50
2019-01-08T02:20:30.195Z,161.13
2019-01-08T02:23:02.037Z,151.07
2019-01-08T02:25:33.921Z,145.87
2019-01-08T02:28:07.094Z,143.33
2019-01-08T02:30:38.931Z,156.30
2019-01-08T02:33:10.806Z,153.97
2019-01-08T02:35:42.671Z,155.40
2019-01-08T02:38:18.193Z,158.07
2019-01-08T02:40:50.079Z,148.50
2019-01-08T02:43:22.130Z,140.60
2019-01-08T02:45:54.023Z,146.20
2019-01-08T02:48:25.864Z,150.93
2019-01-08T02:50:57.797Z,143.23
2019-01-08T02:53:29.659Z,129.13
2019-01-08T02:56:01.879Z,128.63
2019-01-08T02:58:33.809Z,129.57
2019-01-08T03:01:05.727Z,127.97
2019-01-08T03:03:37.575Z,118.93
2019-01-08T03:06:09.480Z,137.40
2019-01-08T03:08:43.071Z,143.87
2019-01-08T03:11:14.932Z,148.90
2019-01-08T03:13:46.913Z,148.87
2019-01-08T03:16:18.926Z,142.03
2019-01-08T03:18:50.916Z,129.47
2019-01-08T03:21:22.805Z,131.93
2019-01-08T03:23:55.018Z,136.17
2019-01-08T03:26:29.060Z,125.70
2019-01-08T03:29:03.375Z,142.57
2019-01-08T03:31:35.389Z,131.60
2019-01-08T03:34:07.386Z,140.67
2019-01-08T03:36:39.656Z,128.70
2019-01-08T03:39:11.536Z,146.50
2019-01-08T03:41:43.383Z,145.30
2019-01-08T03:44:15.279Z,138.93
2019-01-08T03:46:47.802Z,128.53
2019-01-08T03:49:19.798Z,113.17
2019-01-08T03:51:51.697Z,107.57
2019-01-08T03:54:23.554Z,104.47
2019-01-08T03:56:55.457Z,99.23
2019-01-08T03:59:27.320Z,84.63
2019-01-08T04:01:59.210Z,78.60
2019-01-08T04:04:31.258Z,83.10
2019-01-08T04:07:03.148Z,88.97
2019-01-08T04:09:35.071Z,102.53
2019-01-08T04:12:06.913Z,117.70
2019-01-08T04:14:38.828Z,116.67
2019-01-08T04:17:10.753Z,137.13
2019-01-08T04:19:42.813Z,127.00
2019-01-08T04:22:14.783Z,131.17
2019-01-08T04:24:46.658Z,136.90
2019-01-08T04:27:21.042Z,127.57
2019-01-08T04:29:53.376Z,126.83
2019-01-08T04:32:25.274Z,126.40
2019-01-08T04:34:57.376Z,136.03
2019-01-08T04:37:29.318Z,134.67
2019-01-08T04:40:01.240Z,136.53
2019-01-08T04:42:35.831Z,129.00
2019-01-08T04:45:08.129Z,132.93
2019-01-08T04:47:40.495Z,134.23
2019-01-08T04:50:12.377Z,129.60
2019-01-08T04:52:44.293Z,132.33
2019-01-08T04:55:16.258Z,120.57
2019-01-08T04:57:49.826Z,141.07
2019-01-08T05:00:21.794Z,126.37
2019-01-08T05:02:53.774Z,119.23
2019-01-08T05:05:25.843Z,123.17
2019-01-08T05:07:57.801Z,124.97
2019-01-08T05:10:29.659Z,127.50
2019-01-08T05:13:01.546Z,127.40
2019-01-08T05:15:33.412Z,121.83
2019-01-08T05:18:05.403Z,115.73
2019-01-08T05:20:37.336Z,134.07
2019-01-08T05:23:09.738Z,116.83
2019-01-08T05:25:41.623Z,113.03
2019-01-08T05:28:13.564Z,139.23
2019-01-08T05:30:47.086Z,131.63
2019-01-08T05:33:19.092Z,121.37
2019-01-08T05:35:50.974Z,124.47
2019-01-08T05:38:22.924Z,115.77
2019-01-08T05:40:57.387Z,120.33
2019-01-08T05:43:29.610Z,125.80
2019-01-08T05:46:01.546Z,111.33
2019-01-08T05:48:33.455Z,124.83
2019-01-08T05:51:05.362Z,121.60
2019-01-08T05:53:38.688Z,112.97
2019-01-08T05:56:10.626Z,121.40
2019-01-08T05:58:42.478Z,118.83
2019-01-08T06:01:14.363Z,116.03
2019-01-08T06:03:50.071Z,108.83
2019-01-08T06:06:23.109Z,113.67
2019-01-08T06:08:55.025Z,122.27
2019-01-08T06:11:27.891Z,115.77
2019-01-08T06:13:59.913Z,104.67
2019-01-08T06:16:32.473Z,115.03
2019-01-08T06:19:04.452Z,109.73
2019-01-08T06:21:36.351Z,105.40
2019-01-08T06:24:08.267Z,110.90
2019-01-08T06:26:40.143Z,114.03
2019-01-08T06:29:12.535Z,109.30
2019-01-08T06:31:44.396Z,110.93
2019-01-08T06:34:16.297Z,112.47
2019-01-08T06:36:48.186Z,97.33
2019-01-08T06:39:20.136Z,106.53
2019-01-08T06:41:52.440Z,100.77
2019-01-08T06:44:24.371Z,112.93
2019-01-08T06:46:56.228Z,91.23
2019-01-08T06:49:28.699Z,104.27
2019-01-08T06:52:00.723Z,89.07
2019-01-08T06:54:32.610Z,95.83
2019-01-08T06:57:04.547Z,87.53
2019-01-08T06:59:36.469Z,83.60
2019-01-08T07:02:08.322Z,76.33
2019-01-08T07:04:40.208Z,78.37
2019-01-08T07:07:12.044Z,78.23
2019-01-08T07:09:43.985Z,81.93
2019-01-08T07:12:17.442Z,79.40
2019-01-08T07:14:49.366Z,84.63
2019-01-08T07:17:21.251Z,84.53
2019-01-08T07:19:53.155Z,97.67
2019-01-08T07:22:25.206Z,99.40
2019-01-08T07:24:57.051Z,97.83
2019-01-08T07:27:28.951Z,101.83
2019-01-08T07:30:02.047Z,105.97
2019-01-08T07:32:33.976Z,105.40
2019-01-08T07:35:06.135Z,111.40
2019-01-08T07:37:38.487Z,109.67
2019-01-08T07:40:10.410Z,102.87
2019-01-08T07:42:45.252Z,92.90
2019-01-08T07:45:17.266Z,106.10
2019-01-08T07:47:49.278Z,97.80
2019-01-08T07:50:21.163Z,93.33
2019-01-08T07:52:53.098Z,101.60
2019-01-08T07:55:28.140Z,102.07
2019-01-08T07:58:01.791Z,101.90
2019-01-08T08:00:33.714Z,104.97
2019-01-08T08:03:05.552Z,98.13
2019-01-08T08:05:37.459Z,100.53
2019-01-08T08:08:09.354Z,108.27
2019-01-08T08:10:41.221Z,103.67
2019-01-08T08:13:13.126Z,105.67
2019-01-08T08:15:45.008Z,109.77
2019-01-08T08:18:16.904Z,106.87
2019-01-08T08:20:48.753Z,117.07
2019-01-08T08:23:20.697Z,103.73
2019-01-08T08:25:52.555Z,106.20
2019-01-08T08:28:24.500Z,106.70
2019-01-08T08:30:58.954Z,97.60
2019-01-08T08:33:30.642Z,97.97
2019-01-08T08:36:02.541Z,98.83
2019-01-08T08:38:34.486Z,106.73
2019-01-08T08:41:07.686Z,105.87
2019-01-08T08:43:39.524Z,107.43
2019-01-08T08:46:11.466Z,109.20
2019-01-08T08:48:45.665Z,108.10
2019-01-08T08:51:18.108Z,104.40
2019-01-08T08:53:52.539Z,100.47
2019-01-08T08:56:25.301Z,96.93
2019-01-08T08:58:57.224Z,139.27
2019-01-08T09:01:29.111Z,107.63
2019-01-08T09:04:01.001Z,108.50
2019-01-08T09:06:32.880Z,92.67
2019-01-08T09:09:04.865Z,96.00
2019-01-08T09:11:36.777Z,103.97
2019-01-08T09:14:08.705Z,113.63
2019-01-08T09:16:40.600Z,106.33
2019-01-08T09:19:12.487Z,94.80
2019-01-08T09:21:44.367Z,80.90
2019-01-08T09:24:16.260Z,87.93
2019-01-08T09:26:48.153Z,79.73
2019-01-08T09:29:20.214Z,100.00
2019-01-08T09:31:52.265Z,82.63
2019-01-08T09:34:24.266Z,79.92
2019-01-08T09:36:56.143Z,88.97
2019-01-08T09:39:28.572Z,105.78
2019-01-08T09:42:00.555Z,113.97
2019-01-08T09:44:32.561Z,111.72
2019-01-08T09:47:04.447Z,94.67
2019-01-08T09:49:36.385Z,89.92
2019-01-08T09:52:10.368Z,73.85
2019-01-08T09:54:42.406Z,60.60
2019-01-08T09:57:14.653Z,67.53
2019-01-08T09:59:46.563Z,59.33
2019-01-08T10:02:18.572Z,65.28
2019-01-08T10:04:50.475Z,69.35
2019-01-08T10:07:22.363Z,61.02
2019-01-08T10:09:54.266Z,69.90
2019-01-08T10:12:26.153Z,77.92
2019-01-08T10:14:58.057Z,90.30
2019-01-08T10:17:30.083Z,80.40
2019-01-08T10:20:02.056Z,75.55
2019-01-08T10:22:33.922Z,67.47
2019-01-08T10:25:06.394Z,64.62
2019-01-08T10:27:38.301Z,61.13
2019-01-08T10:30:11.104Z,58.90
2019-01-08T10:32:45.766Z,60.78
2019-01-08T10:35:17.647Z,56.15
2019-01-08T10:37:51.709Z,49.33
2019-01-08T10:40:23.674Z,50.03
2019-01-08T10:42:58.835Z,49.48
2019-01-08T10:45:29.502Z,51.70
2019-01-08T10:48:00.984Z,61.63
2019-01-08T10:50:34.290Z,53.78
2019-01-08T10:53:06.190Z,50.43
2019-01-08T10:55:38.465Z,61.08
2019-01-08T10:58:11.639Z,56.40
2019-01-08T11:00:43.537Z,51.45
2019-01-08T11:03:15.510Z,49.58
2019-01-08T11:05:51.969Z,58.13
2019-01-08T11:08:24.683Z,94.52
2019-01-08T11:10:56.795Z,83.05
2019-01-08T11:13:28.655Z,85.70
2019-01-08T11:16:00.588Z,77.65
2019-01-08T11:18:32.488Z,250.47
2019-01-08T11:21:04.519Z,268.02
2019-01-08T11:23:38.408Z,177.97
2019-01-08T11:26:10.402Z,114.15
2019-01-08T11:28:43.327Z,87.80
2019-01-08T11:31:15.451Z,91.87
2019-01-08T11:33:47.400Z,102.07
2019-01-08T11:36:22.450Z,85.30
2019-01-08T11:38:55.147Z,96.80
2019-01-08T11:41:30.535Z,95.20
2019-01-08T11:44:02.711Z,76.05
2019-01-08T11:46:35.156Z,72.08
2019-01-08T11:49:07.196Z,60.28
2019-01-08T11:51:39.185Z,59.73
2019-01-08T11:54:13.076Z,59.73
2019-01-08T11:56:45.009Z,61.60
2019-01-08T11:59:16.953Z,51.23
2019-01-08T12:01:56.982Z,55.03
2019-01-08T12:04:22.616Z,41.33
2019-01-08T12:06:54.490Z,37.65
2019-01-08T12:09:26.391Z,45.83
2019-01-08T12:11:58.234Z,48.30
2019-01-08T12:14:31.758Z,47.33
2019-01-08T12:17:04.062Z,49.45
2019-01-08T12:19:36.001Z,56.15
2019-01-08T12:22:08.011Z,56.25
2019-01-08T12:24:39.930Z,51.60
2019-01-08T12:27:13.343Z,48.15
2019-01-08T12:29:46.932Z,44.85
2019-01-08T12:32:18.930Z,39.48
2019-01-08T12:34:50.944Z,35.88
2019-01-08T12:37:23.396Z,36.85
2019-01-08T12:39:55.277Z,35.75
2019-01-08T12:42:27.319Z,35.13
2019-01-08T12:44:59.287Z,32.85
2019-01-08T12:47:31.199Z,35.52
2019-01-08T12:50:03.121Z,34.55
2019-01-08T12:52:35.058Z,34.08
2019-01-08T12:55:07.250Z,30.45
2019-01-08T12:57:42.044Z,30.92
2019-01-08T13:00:14.371Z,32.73
2019-01-08T13:02:46.405Z,32.90
2019-01-08T13:05:18.338Z,34.67
2019-01-08T13:07:54.780Z,31.15
2019-01-08T13:10:26.799Z,34.10
2019-01-08T13:12:58.734Z,36.75
2019-01-08T13:15:30.691Z,42.50
2019-01-08T13:18:02.594Z,51.77
2019-01-08T13:20:34.654Z,41.20
2019-01-08T13:23:08.410Z,31.17
2019-01-08T13:25:40.374Z,37.73
2019-01-08T13:28:15.825Z,39.40
2019-01-08T13:30:47.936Z,19.17
2019-01-08T13:33:19.909Z,11.18
2019-01-08T13:35:57.922Z,16.50
2019-01-08T13:38:29.779Z,12.10
2019-01-08T13:41:01.869Z,13.40
2019-01-08T13:43:34.291Z,17.23
2019-01-08T13:46:06.240Z,11.57
2019-01-08T13:48:38.124Z,13.98
2019-01-08T13:51:10.055Z,21.27
2019-01-08T13:53:41.897Z,18.00
2019-01-08T13:56:17.365Z,17.30
2019-01-08T13:58:49.254Z,21.70
2019-01-08T14:01:28.618Z,23.83
2019-01-08T14:04:00.531Z,23.22
2019-01-08T14:06:33.516Z,24.20
2019-01-08T14:09:08.289Z,19.98
2019-01-08T14:11:40.286Z,23.62
2019-01-08T14:14:15.389Z,25.15
2019-01-08T14:16:47.309Z,32.63
2019-01-08T14:19:19.248Z,25.30
2019-01-08T14:21:51.197Z,30.88
2019-01-08T14:24:23.092Z,33.58
2019-01-08T14:26:54.970Z,44.23
2019-01-08T14:29:26.848Z,47.33
2019-01-08T14:32:00.795Z,34.00
2019-01-08T14:34:32.693Z,22.95
2019-01-08T14:37:05.006Z,39.65
2019-01-08T14:39:36.958Z,22.58
2019-01-08T14:42:10.450Z,23.35
2019-01-08T14:44:42.418Z,22.60
2019-01-08T14:47:14.393Z,20.57
2019-01-08T14:49:46.300Z,21.07
2019-01-08T14:52:18.160Z,21.42
2019-01-08T14:54:50.026Z,24.52
2019-01-08T14:57:21.904Z,18.90
2019-01-08T14:59:53.826Z,22.35
2019-01-08T15:02:25.687Z,20.30
2019-01-08T15:04:58.012Z,22.07
2019-01-08T15:07:30.113Z,21.90
2019-01-08T15:10:03.623Z,22.58
2019-01-08T15:12:35.786Z,23.95
2019-01-08T15:15:08.260Z,27.02
2019-01-08T15:17:40.691Z,27.80
2019-01-08T15:20:12.984Z,28.95
2019-01-08T15:22:44.864Z,28.52
2019-01-08T15:25:16.719Z,24.98
2019-01-08T15:27:48.614Z,22.93
2019-01-08T15:30:20.515Z,23.75
2019-01-08T15:32:58.241Z,25.57
2019-01-08T15:35:26.259Z,21.68
2019-01-08T15:37:58.199Z,22.85
2019-01-08T15:40:30.189Z,25.37
2019-01-08T15:43:03.341Z,25.17
2019-01-08T15:45:35.266Z,28.12
2019-01-08T15:48:07.200Z,22.98
2019-01-08T15:50:39.115Z,29.37
2019-01-08T15:53:10.971Z,29.77
2019-01-08T15:55:45.400Z,25.12
2019-01-08T15:58:18.494Z,31.62
2019-01-08T16:00:50.412Z,32.35
2019-01-08T16:03:22.302Z,32.65
2019-01-08T16:05:54.208Z,32.67
2019-01-08T16:08:26.105Z,48.08
2019-01-08T16:10:58.079Z,42.38
2019-01-08T16:13:30.169Z,52.65
2019-01-08T16:16:02.041Z,74.97
2019-01-08T16:18:35.583Z,130.43
2019-01-08T16:21:07.573Z,134.07
2019-01-08T16:23:39.451Z,106.35
2019-01-08T16:26:11.447Z,77.40
2019-01-08T16:28:43.309Z,68.60
2019-01-08T16:31:15.289Z,59.05
2019-01-08T16:33:47.191Z,77.42
2019-01-08T16:36:19.074Z,94.80
2019-01-08T16:38:51.029Z,88.55
2019-01-08T16:41:22.915Z,83.92
2019-01-08T16:43:54.757Z,85.55
2019-01-08T16:46:26.681Z,57.05
2019-01-08T16:48:58.568Z,83.15
2019-01-08T16:51:30.861Z,86.42
2019-01-08T16:54:02.931Z,66.85
2019-01-08T16:56:34.762Z,77.10
2019-01-08T16:59:06.754Z,65.25
2019-01-08T17:01:38.585Z,43.33
2019-01-08T17:04:10.472Z,53.85
2019-01-08T17:06:42.356Z,84.40
2019-01-08T17:09:14.472Z,113.85
2019-01-08T17:11:46.328Z,133.70
2019-01-08T17:14:18.220Z,76.57
2019-01-08T17:16:53.859Z,74.15
2019-01-08T17:19:25.828Z,104.20
2019-01-08T17:21:57.916Z,69.92
2019-01-08T17:24:29.876Z,70.15
2019-01-08T17:27:01.817Z,45.98
2019-01-08T17:32:59.455Z,51.18
2019-01-08T17:35:31.348Z,43.35
2019-01-08T17:38:03.273Z,46.60
2019-01-08T17:40:35.174Z,34.05
2019-01-08T17:43:07.070Z,39.15
2019-01-08T17:45:41.667Z,34.27
2019-01-08T17:48:15.800Z,42.20
2019-01-08T17:50:50.117Z,31.60
2019-01-08T17:53:22.061Z,34.98
2019-01-08T17:55:53.985Z,46.83
2019-01-08T17:58:45.829Z,254.38
2019-01-08T18:01:27.732Z,201.02
2019-01-08T18:03:59.718Z,50.80
2019-01-08T18:06:50.408Z,53.28
2019-01-08T18:09:53.735Z,86.97
2019-01-08T18:12:26.700Z,82.05
2019-01-08T18:14:58.622Z,122.50
2019-01-08T18:17:32.276Z,241.02
2019-01-08T18:20:06.769Z,319.48
2019-01-08T18:22:38.719Z,411.20
2019-01-08T18:25:11.823Z,391.63
2019-01-08T18:27:45.351Z,498.50
2019-01-08T18:30:18.891Z,265.35
2019-01-08T18:32:50.827Z,217.70
2019-01-08T18:35:22.872Z,238.47
2019-01-08T18:37:54.787Z,217.00
2019-01-08T18:40:26.632Z,166.10
2019-01-08T18:42:58.721Z,161.92
2019-01-08T18:45:30.982Z,212.97
2019-01-08T18:48:02.848Z,192.77
2019-01-08T18:50:35.833Z,209.92
2019-01-08T18:53:09.514Z,231.25
2019-01-08T18:55:43.279Z,281.35
2019-01-08T18:58:16.518Z,253.67
2019-01-08T19:00:49.458Z,330.70
2019-01-08T19:03:21.368Z,331.38
2019-01-08T19:05:53.266Z,346.85
2019-01-08T19:08:47.221Z,258.17
2019-01-08T19:11:19.067Z,202.28
2019-01-08T19:13:51.064Z,217.62
2019-01-08T19:19:23.235Z,261.27
2019-01-08T19:21:56.816Z,327.38
2019-01-08T19:24:32.066Z,222.60
2019-01-08T19:27:05.690Z,191.68
2019-01-08T19:29:39.431Z,301.33
2019-01-08T19:32:11.247Z,356.85
2019-01-08T19:34:49.464Z,264.90
2019-01-08T19:37:21.497Z,196.57
2019-01-08T19:39:56.951Z,169.60
2019-01-08T19:42:29.965Z,163.15
2019-01-08T19:45:03.668Z,157.62
2019-01-08T19:47:35.594Z,181.28
2019-01-08T19:50:08.720Z,161.55
2019-01-08T19:52:43.811Z,165.82
2019-01-08T19:55:16.670Z,189.25
2019-01-08T19:57:49.691Z,192.27
2019-01-08T20:00:21.779Z,187.57
2019-01-08T20:02:53.708Z,188.15
2019-01-08T20:05:25.687Z,196.00
2019-01-08T20:07:59.241Z,228.30
2019-01-08T20:10:31.476Z,209.52
2019-01-08T20:13:03.358Z,206.37
2019-01-08T20:15:35.288Z,205.10
2019-01-08T20:18:07.644Z,220.37
2019-01-08T20:20:39.836Z,232.00
2019-01-08T20:23:12.279Z,200.40
2019-01-08T20:25:44.171Z,182.17
2019-01-08T20:28:16.069Z,186.30
2019-01-08T20:30:49.554Z,175.80
2019-01-08T20:33:21.414Z,193.80
2019-01-08T20:35:53.352Z,195.97
2019-01-08T20:38:25.206Z,180.20
2019-01-08T20:40:58.729Z,216.10
2019-01-08T20:43:31.701Z,201.00
2019-01-08T20:46:04.776Z,202.03
2019-01-08T20:48:36.699Z,209.03
2019-01-08T20:51:08.828Z,212.07
2019-01-08T20:53:41.180Z,237.17
2019-01-08T20:56:13.229Z,197.27
2019-01-08T20:58:45.122Z,190.43
2019-01-08T21:01:17.015Z,201.18
2019-01-08T21:03:48.889Z,177.53
2019-01-08T21:06:20.777Z,178.80
2019-01-08T21:08:52.707Z,177.57
2019-01-08T21:11:28.148Z,186.33
2019-01-08T21:13:59.993Z,183.60
2019-01-08T21:16:32.646Z,184.97
2019-01-08T21:19:04.502Z,195.03
2019-01-08T21:21:39.863Z,200.40
2019-01-08T21:24:13.890Z,198.23
2019-01-08T21:26:45.785Z,184.57
2019-01-08T21:29:18.097Z,187.57
2019-01-08T21:31:50.475Z,169.43
2019-01-08T21:34:26.085Z,176.40
2019-01-08T21:36:58.380Z,176.53
2019-01-08T21:39:30.369Z,210.07
2019-01-08T21:42:03.660Z,190.77
2019-01-08T21:44:35.555Z,171.53
2019-01-08T21:47:07.457Z,176.43
2019-01-08T21:49:39.307Z,191.00
2019-01-08T21:52:11.266Z,179.93
2019-01-08T21:54:43.227Z,183.60
2019-01-08T21:57:17.860Z,184.50
2019-01-08T21:59:49.740Z,182.40
2019-01-08T22:02:21.845Z,190.97
2019-01-08T22:04:54.092Z,178.10
2019-01-08T22:07:26.125Z,175.37
2019-01-08T22:10:00.818Z,195.87
2019-01-08T22:12:32.725Z,186.27
2019-01-08T22:15:05.001Z,180.27
2019-01-08T22:17:36.841Z,187.07
2019-01-08T22:20:10.533Z,201.80
2019-01-08T22:22:42.459Z,200.57
2019-01-08T22:25:14.459Z,187.30
2019-01-08T22:27:46.585Z,184.87
2019-01-08T22:30:19.032Z,194.30
2019-01-08T22:32:50.945Z,188.20
2019-01-08T22:35:22.785Z,195.63
2019-01-08T22:37:55.003Z,184.30
2019-01-08T22:40:26.941Z,192.90
2019-01-08T22:42:59.028Z,191.60
2019-01-08T22:45:30.973Z,210.83
2019-01-08T22:48:03.538Z,185.87
2019-01-08T22:50:35.447Z,188.60
2019-01-08T22:53:09.338Z,189.50
2019-01-08T22:55:41.775Z,185.37
2019-01-08T22:58:14.515Z,189.67
2019-01-08T23:01:15.449Z,198.43
2019-01-08T23:03:50.170Z,206.90
2019-01-08T23:06:23.525Z,192.80
2019-01-08T23:09:01.245Z,192.57
2019-01-08T23:11:37.436Z,188.80
2019-01-08T23:14:09.099Z,175.23
2019-01-08T23:16:43.468Z,195.67
2019-01-08T23:19:15.443Z,176.73
2019-01-08T23:21:48.332Z,185.97
2019-01-08T23:24:20.189Z,192.37
2019-01-08T23:26:52.315Z,195.40
2019-01-08T23:29:24.318Z,196.13
2019-01-08T23:31:56.320Z,162.57
2019-01-08T23:34:28.175Z,178.50
2019-01-08T23:37:00.099Z,197.03
2019-01-08T23:39:32.089Z,187.20
2019-01-08T23:42:04.130Z,181.83
2019-01-08T23:44:36.504Z,193.20
2019-01-08T23:47:08.401Z,193.67
2019-01-08T23:49:40.325Z,189.63
2019-01-08T23:52:25.460Z,177.80
2019-01-08T23:54:58.260Z,173.47
2019-01-08T23:57:31.404Z,179.67
